Time;durP1;ratioP1;P1;durP2;ratioP2;P2;SDS_P1;SDS_P2;PMS_P1;PMS_P2;Temp;Humidity;BMP_temperature;BMP_pressure;BME280_temperature;BME280_humidity;BME280_pressure;Samples;Min_cycle;Max_cycle;Signal;HPM_P1;HPM_P2
2022/01/04 00:00:35;;;;;;;23.25;6.15;;;;;;;7.06;89.66;100000.53;2070591;28;46275;-78
2022/01/04 00:01:37;;;;;;;19.00;5.93;;;;;;;7.07;89.44;100005.84;2063997;28;29090;-79
2022/01/04 00:02:39;;;;;;;16.65;6.28;;;;;;;7.06;89.78;99998.75;2063150;28;45477;-80
2022/01/04 00:03:41;;;;;;;15.20;6.05;;;;;;;7.06;89.14;99996.09;2062935;28;44936;-77
2022/01/04 00:04:43;;;;;;;18.20;6.30;;;;;;;7.08;89.57;99996.06;2047611;28;24786;-79
2022/01/04 00:05:45;;;;;;;17.42;6.03;;;;;;;7.06;89.66;100001.41;2055187;28;45708;-77
2022/01/04 00:06:47;;;;;;;17.02;6.00;;;;;;;7.05;89.64;100001.44;2062424;28;43989;-78
2022/01/04 00:07:48;;;;;;;17.50;6.30;;;;;;;7.05;89.78;99993.47;2055211;28;45177;-78
2022/01/04 00:08:50;;;;;;;17.17;6.28;;;;;;;7.09;89.54;100000.47;2062759;28;44489;-79
2022/01/04 00:09:53;;;;;;;15.98;5.85;;;;;;;7.08;89.29;99998.72;2064172;28;29017;-78
2022/01/04 00:11:05;;;;;;;18.92;6.60;;;;;;;7.07;89.57;100000.50;2063508;28;47199;-78
2022/01/04 00:13:30;;;;;;;18.70;6.75;;;;;;;7.08;89.26;100007.56;2062564;28;45738;-78
2022/01/04 00:14:31;;;;;;;15.07;5.95;;;;;;;7.07;89.47;100003.16;2062818;28;45802;-78
2022/01/04 00:15:34;;;;;;;18.17;6.13;;;;;;;7.05;89.41;99994.34;2070576;28;45532;-78
2022/01/04 00:16:36;;;;;;;19.27;5.97;;;;;;;7.05;89.37;99998.78;2070274;28;46662;-78
2022/01/04 00:17:38;;;;;;;17.52;6.03;;;;;;;7.04;89.53;99995.25;2054755;28;31035;-79
2022/01/04 00:18:41;;;;;;;17.67;5.70;;;;;;;7.02;89.78;99994.41;2054767;28;43077;-78
2022/01/04 00:19:42;;;;;;;17.27;6.45;;;;;;;7.01;89.39;99986.47;2062941;28;44820;-78
2022/01/04 00:20:46;;;;;;;19.90;6.28;;;;;;;7.00;89.69;99987.34;2062915;28;43843;-78
2022/01/04 00:21:49;;;;;;;21.85;6.82;;;;;;;6.98;89.52;99986.53;2055895;28;36328;-78
2022/01/04 00:22:51;;;;;;;21.52;5.88;;;;;;;6.97;89.56;99987.47;2055344;28;44317;-78
2022/01/04 00:23:53;;;;;;;21.23;6.72;;;;;;;6.95;89.86;99976.84;2053399;28;45466;-78
2022/01/04 00:24:57;;;;;;;19.40;6.38;;;;;;;6.93;89.49;99988.41;2047071;28;44696;-79
2022/01/04 00:25:59;;;;;;;17.98;6.18;;;;;;;6.92;89.93;99976.91;2062901;28;44416;-78
2022/01/04 00:27:01;;;;;;;18.60;6.35;;;;;;;6.92;89.88;99976.03;2062524;28;46787;-78
2022/01/04 00:28:07;;;;;;;19.27;6.50;;;;;;;6.90;89.67;99970.75;2062823;28;20140;-78
2022/01/04 00:29:11;;;;;;;24.20;7.05;;;;;;;6.88;89.91;99970.78;2062693;28;43951;-78
2022/01/04 00:30:13;;;;;;;19.83;7.07;;;;;;;6.86;89.96;99953.97;2063902;28;28724;-78
2022/01/04 00:31:15;;;;;;;17.45;6.18;;;;;;;6.86;89.81;99953.13;2063229;28;38447;-78
2022/01/04 00:32:16;;;;;;;15.88;6.22;;;;;;;6.82;90.12;99960.28;2056263;28;30561;-78
2022/01/04 00:33:18;;;;;;;17.85;7.32;;;;;;;6.80;90.66;99963.88;2064590;28;44873;-78
2022/01/04 00:34:20;;;;;;;19.92;7.72;;;;;;;6.77;90.15;99967.50;2064845;28;43298;-78
2022/01/04 00:35:22;;;;;;;22.15;7.22;;;;;;;6.76;90.01;99955.09;2064228;28;45349;-78
2022/01/04 00:36:25;;;;;;;21.50;7.78;;;;;;;6.76;90.29;99963.09;2064764;28;43124;-78
2022/01/04 00:37:26;;;;;;;13.98;6.45;;;;;;;6.75;90.24;99963.13;2064738;28;44505;-78
2022/01/04 00:38:28;;;;;;;20.17;7.30;;;;;;;6.74;90.52;99962.25;2063700;28;44933;-79
2022/01/04 00:39:30;;;;;;;22.30;7.88;;;;;;;6.74;90.54;99961.38;2056096;28;45293;-79
2022/01/04 00:40:33;;;;;;;18.48;7.15;;;;;;;6.73;90.71;99952.53;2063311;28;47151;-77
2022/01/04 00:41:34;;;;;;;16.27;7.53;;;;;;;6.72;90.53;99949.91;2062933;28;44474;-78
2022/01/04 00:42:36;;;;;;;22.75;8.43;;;;;;;6.73;90.67;99948.97;2047701;28;44432;-78
2022/01/04 00:43:38;;;;;;;15.15;7.00;;;;;;;6.69;90.61;99937.53;2056148;28;44775;-78
2022/01/04 00:44:40;;;;;;;22.83;8.30;;;;;;;6.69;90.65;99943.75;2063944;28;45433;-78
2022/01/04 00:45:41;;;;;;;24.65;7.47;;;;;;;6.68;90.64;99947.31;2064718;28;46184;-78
2022/01/04 00:46:43;;;;;;;18.13;8.07;;;;;;;6.67;91.07;99950.00;2064442;28;43348;-78
2022/01/04 00:49:09;;;;;;;23.20;8.27;;;;;;;6.66;90.55;99946.47;2072316;28;44718;-78
2022/01/04 00:49:10;;;;;;;22.40;8.05;;;;;;;6.66;91.04;99946.47;2069920;28;29954;-78
2022/01/04 00:50:12;;;;;;;24.17;8.20;;;;;;;6.67;90.94;99950.00;2064790;28;43128;-78
2022/01/04 00:51:14;;;;;;;19.52;7.38;;;;;;;6.67;90.95;99944.69;2064682;28;45145;-78
2022/01/04 00:52:17;;;;;;;22.02;8.02;;;;;;;6.68;90.83;99946.44;2066613;28;44112;-78
2022/01/04 00:53:19;;;;;;;25.05;7.93;;;;;;;6.70;90.59;99939.28;2064206;28;44428;-78
2022/01/04 00:54:22;;;;;;;22.25;8.48;;;;;;;6.69;91.08;99932.22;2064419;28;45842;-78
2022/01/04 00:55:25;;;;;;;16.05;7.88;;;;;;;6.71;90.79;99934.84;2065434;28;30108;-79
2022/01/04 00:56:27;;;;;;;24.10;8.93;;;;;;;6.72;90.94;99924.16;2063844;28;43315;-79
2022/01/04 00:57:29;;;;;;;20.25;8.52;;;;;;;6.72;90.93;99928.63;2063743;28;46075;-78
2022/01/04 00:58:31;;;;;;;23.83;8.68;;;;;;;6.74;90.99;99925.00;2064394;28;42858;-78
2022/01/04 00:59:32;;;;;;;20.55;8.52;;;;;;;6.72;91.00;99926.84;2063853;28;46632;-78
2022/01/04 01:00:35;;;;;;;18.23;7.95;;;;;;;6.72;90.53;99916.19;2056093;28;44531;-78
2022/01/04 01:01:38;;;;;;;17.67;8.68;;;;;;;6.73;90.80;99915.28;2063678;28;45741;-79
2022/01/04 01:02:41;;;;;;;19.42;7.97;;;;;;;6.73;90.70;99923.28;2072493;28;27238;-78
2022/01/04 01:03:43;;;;;;;18.85;8.38;;;;;;;6.73;91.00;99914.41;2063771;28;43833;-78
2022/01/04 01:04:44;;;;;;;22.10;8.38;;;;;;;6.73;90.65;99914.41;2056146;28;45173;-77
2022/01/04 01:05:46;;;;;;;22.25;8.40;;;;;;;6.73;91.22;99911.75;2064111;28;43580;-78
2022/01/04 01:06:48;;;;;;;20.95;9.20;;;;;;;6.73;90.80;99914.41;2063886;28;45429;-78
2022/01/04 01:07:50;;;;;;;22.13;9.07;;;;;;;6.73;91.04;99909.97;2064824;28;43778;-78
2022/01/04 01:08:53;;;;;;;23.10;9.68;;;;;;;6.73;90.64;99904.66;2055322;28;45422;-78
2022/01/04 01:11:16;;;;;;;19.40;8.55;;;;;;;6.74;91.08;99910.84;2058532;28;43836;-79
2022/01/04 01:12:17;;;;;;;20.67;8.48;;;;;;;6.73;90.89;99912.63;2064103;28;37936;-78
2022/01/04 01:13:19;;;;;;;19.60;9.25;;;;;;;6.74;90.94;99909.03;2064212;28;46148;-78
2022/01/04 01:14:21;;;;;;;19.92;8.77;;;;;;;6.75;91.00;99910.81;2064197;28;45216;-77
2022/01/04 01:15:24;;;;;;;23.65;9.57;;;;;;;6.73;91.23;99902.00;2064383;28;45164;-78
2022/01/04 01:16:26;;;;;;;17.55;9.63;;;;;;;6.74;91.07;99898.41;2064319;28;25418;-78
2022/01/04 01:17:27;;;;;;;20.10;9.90;;;;;;;6.75;91.19;99904.59;2048525;28;45417;-77
2022/01/04 01:18:29;;;;;;;18.65;10.13;;;;;;;6.75;91.27;99902.81;2055818;28;46314;-77
2022/01/04 01:19:32;;;;;;;20.23;9.57;;;;;;;6.76;91.61;99904.56;2056372;28;27861;-77
2022/01/04 01:20:35;;;;;;;21.05;10.10;;;;;;;6.77;91.38;99893.03;2056093;28;43118;-77
2022/01/04 01:21:36;;;;;;;23.23;10.77;;;;;;;6.76;91.91;99895.72;2064105;28;42859;-77
2022/01/04 01:22:38;;;;;;;20.23;10.20;;;;;;;6.75;91.49;99900.16;2064442;28;33816;-77
2022/01/04 01:23:40;;;;;;;29.67;11.10;;;;;;;6.75;91.70;99891.28;2064464;28;45212;-77
2022/01/04 01:24:42;;;;;;;23.52;10.00;;;;;;;6.72;91.89;99892.25;2064212;28;44592;-79
2022/01/04 01:25:43;;;;;;;24.77;10.98;;;;;;;6.72;91.90;99886.06;2063598;28;44424;-77
2022/01/04 01:26:45;;;;;;;21.52;10.77;;;;;;;6.69;91.80;99885.22;2063657;28;44775;-77
2022/01/04 01:27:47;;;;;;;23.73;11.68;;;;;;;6.69;92.09;99882.56;2064043;28;43012;-78
2022/01/04 01:28:49;;;;;;;24.08;11.38;;;;;;;6.71;92.04;99889.63;2064124;28;46298;-79
2022/01/04 01:29:51;;;;;;;24.85;12.25;;;;;;;6.70;92.20;99886.09;2064401;28;43163;-78
2022/01/04 01:30:53;;;;;;;26.67;11.52;;;;;;;6.69;92.33;99879.91;2064196;28;45382;-78
2022/01/04 01:31:55;;;;;;;30.67;12.52;;;;;;;6.68;92.52;99880.81;2063946;28;43770;-77
2022/01/04 01:32:56;;;;;;;28.92;12.35;;;;;;;6.71;93.03;99881.63;2064057;28;35200;-76
2022/01/04 01:33:59;;;;;;;26.33;12.00;;;;;;;6.71;92.66;99887.81;2063990;28;46694;-76
2022/01/04 01:35:01;;;;;;;23.83;11.32;;;;;;;6.70;93.14;99883.44;2064379;28;42917;-76
2022/01/04 01:36:03;;;;;;;24.83;12.23;;;;;;;6.68;92.99;99882.59;2064317;28;45517;-75
2022/01/04 01:37:04;;;;;;;20.95;11.32;;;;;;;6.68;93.06;99887.94;2063658;28;43539;-76
2022/01/04 01:38:08;;;;;;;20.85;11.30;;;;;;;6.65;92.82;99872.03;2063729;28;44249;-76
2022/01/04 01:39:10;;;;;;;26.20;13.10;;;;;;;6.68;93.15;99877.28;2064333;28;46386;-77
2022/01/04 01:40:12;;;;;;;28.42;12.07;;;;;;;6.68;92.82;99874.63;2064637;28;43053;-77
2022/01/04 01:41:14;;;;;;;30.25;12.77;;;;;;;6.68;92.72;99872.84;2064585;28;35515;-76
2022/01/04 01:42:16;;;;;;;20.05;11.80;;;;;;;6.67;92.98;99870.19;2064048;28;46183;-77
2022/01/04 01:43:18;;;;;;;28.00;13.68;;;;;;;6.64;93.12;99860.53;2063619;28;44577;-78
2022/01/04 01:44:22;;;;;;;25.40;12.30;;;;;;;6.66;93.06;99863.16;2064292;28;44471;-77
2022/01/04 01:45:24;;;;;;;26.55;12.60;;;;;;;6.64;93.25;99865.84;2063870;28;44832;-77
2022/01/04 01:46:26;;;;;;;22.60;12.45;;;;;;;6.63;93.22;99852.59;2063981;28;45351;-77
2022/01/04 01:47:28;;;;;;;29.27;14.00;;;;;;;6.64;93.43;99860.53;2064860;28;25039;-77
2022/01/04 01:48:30;;;;;;;31.98;13.32;;;;;;;6.62;93.14;99851.72;2064202;28;44400;-77
2022/01/04 01:49:31;;;;;;;27.80;12.27;;;;;;;6.61;93.31;99851.75;2064256;28;45632;-77
2022/01/04 01:50:34;;;;;;;26.48;13.65;;;;;;;6.60;93.24;99853.50;2071744;28;45097;-76
2022/01/04 01:51:35;;;;;;;28.95;13.05;;;;;;;6.59;93.28;99856.22;2063766;28;43880;-77
2022/01/04 01:52:39;;;;;;;30.13;14.05;;;;;;;6.60;93.30;99857.97;2063384;28;46371;-77
2022/01/04 01:53:42;;;;;;;26.40;12.43;;;;;;;6.58;93.75;99860.66;2064215;28;44345;-76
2022/01/04 01:54:44;;;;;;;23.38;12.32;;;;;;;6.59;93.21;99865.06;2063832;28;44434;-77
2022/01/04 01:55:45;;;;;;;28.17;13.27;;;;;;;6.57;93.72;99858.94;2064307;28;45674;-77
2022/01/04 01:56:47;;;;;;;25.70;13.23;;;;;;;6.56;93.28;99846.53;2063971;28;45415;-77
2022/01/04 01:57:50;;;;;;;24.65;13.27;;;;;;;6.56;93.79;99848.31;2063497;28;28944;-77
2022/01/04 01:58:53;;;;;;;26.45;13.23;;;;;;;6.54;93.58;99847.50;2063227;28;41885;-77
2022/01/04 01:59:54;;;;;;;24.25;13.40;;;;;;;6.55;93.85;99844.78;2064380;28;45457;-77
2022/01/04 02:00:56;;;;;;;27.63;14.43;;;;;;;6.53;93.65;99841.28;2063115;28;44980;-77
2022/01/04 02:01:58;;;;;;;26.92;13.13;;;;;;;6.57;93.48;99844.72;2055934;28;43397;-77
2022/01/04 02:03:02;;;;;;;29.85;13.80;;;;;;;6.55;93.27;99844.78;2064670;28;20039;-77
2022/01/04 02:04:04;;;;;;;23.15;13.57;;;;;;;6.58;93.02;99839.38;2064199;28;34814;-77
2022/01/04 02:05:10;;;;;;;26.73;13.85;;;;;;;6.59;93.15;99834.97;2064084;28;43333;-77
2022/01/04 02:06:11;;;;;;;24.35;12.75;;;;;;;6.57;93.31;99835.00;2063063;28;46979;-76
2022/01/04 02:07:13;;;;;;;27.23;13.60;;;;;;;6.58;93.20;99826.09;2063285;28;44814;-77
2022/01/04 02:08:16;;;;;;;31.23;14.57;;;;;;;6.58;93.17;99833.19;2064134;28;45441;-76
2022/01/04 02:09:18;;;;;;;26.52;13.15;;;;;;;6.58;93.15;99825.22;2055756;28;29535;-76
2022/01/04 02:10:20;;;;;;;28.05;13.48;;;;;;;6.56;93.22;99825.25;2055845;28;45423;-76
2022/01/04 02:11:28;;;;;;;25.10;13.73;;;;;;;6.58;92.94;99828.75;2071602;28;45156;-76
2022/01/04 02:12:50;;;;;;;26.08;13.27;;;;;;;6.56;92.74;99816.41;2064777;28;43143;-76
2022/01/04 02:13:53;;;;;;;23.15;12.55;;;;;;;6.55;92.64;99822.63;2064153;28;43319;-77
2022/01/04 02:14:55;;;;;;;29.90;14.30;;;;;;;6.56;93.35;99817.28;2064214;28;35351;-77
2022/01/04 02:15:59;;;;;;;24.48;13.57;;;;;;;6.53;93.11;99809.38;2064386;28;45087;-77
2022/01/04 02:17:00;;;;;;;33.67;14.48;;;;;;;6.50;92.84;99810.31;2060948;28;46187;-76
2022/01/04 02:18:03;;;;;;;25.52;14.25;;;;;;;6.50;93.27;99818.31;2057586;28;34086;-77
2022/01/04 02:19:07;;;;;;;30.00;13.48;;;;;;;6.47;93.43;99807.72;2056295;28;43413;-76
2022/01/04 02:20:11;;;;;;;26.10;13.98;;;;;;;6.46;92.96;99813.97;2056666;28;32615;-77
2022/01/04 02:21:13;;;;;;;31.83;14.63;;;;;;;6.46;93.36;99808.66;2062049;28;43903;-76
2022/01/04 02:22:14;;;;;;;26.83;14.30;;;;;;;6.46;93.15;99818.41;2055867;28;45565;-77
2022/01/04 02:23:16;;;;;;;28.98;14.20;;;;;;;6.47;93.59;99810.38;2056459;28;24617;-76
2022/01/04 02:24:20;;;;;;;26.85;14.43;;;;;;;6.47;92.94;99812.19;2055736;28;43123;-76
2022/01/04 02:25:21;;;;;;;31.98;14.63;;;;;;;6.47;93.32;99815.72;2055294;28;46698;-77
2022/01/04 02:26:24;;;;;;;26.70;14.45;;;;;;;6.46;93.29;99808.66;2055496;28;44978;-76
2022/01/04 02:27:26;;;;;;;28.30;13.65;;;;;;;6.45;92.92;99801.59;2055403;28;44285;-76
2022/01/04 02:28:29;;;;;;;28.20;14.27;;;;;;;6.46;93.40;99803.34;2054989;28;45850;-76
2022/01/04 02:29:31;;;;;;;30.80;14.80;;;;;;;6.45;93.85;99801.59;2055829;28;45360;-76
2022/01/04 02:30:34;;;;;;;30.05;13.75;;;;;;;6.46;93.25;99799.78;2055627;28;28165;-75
2022/01/04 02:31:36;;;;;;;26.50;14.23;;;;;;;6.45;93.10;99795.41;2055625;28;43679;-76
2022/01/04 02:32:38;;;;;;;27.42;15.25;;;;;;;6.44;93.22;99802.50;2054777;28;45247;-76
2022/01/04 02:33:40;;;;;;;28.70;14.90;;;;;;;6.45;94.02;99796.25;2057964;28;46176;-76
2022/01/04 02:34:51;;;;;;;32.95;15.07;;;;;;;6.43;93.63;99800.75;2064122;28;45331;-76
2022/01/04 02:35:52;;;;;;;37.25;15.35;;;;;;;6.42;93.18;99796.31;2064038;28;26429;-77
2022/01/04 02:36:54;;;;;;;30.75;15.07;;;;;;;6.39;93.46;99795.53;2064381;28;44724;-77
2022/01/04 02:37:58;;;;;;;29.73;14.57;;;;;;;6.38;93.63;99797.31;2063205;28;44069;-76
2022/01/04 02:39:00;;;;;;;29.60;15.70;;;;;;;6.36;93.47;99795.63;2065153;28;20051;-76
2022/01/04 02:40:03;;;;;;;30.58;16.48;;;;;;;6.35;93.75;99793.88;2071031;28;43985;-76
2022/01/04 02:41:05;;;;;;;34.50;16.17;;;;;;;6.34;93.70;99790.34;2064408;28;30381;-76
2022/01/04 02:42:07;;;;;;;31.13;16.65;;;;;;;6.33;93.81;99793.91;2063170;28;44578;-76
2022/01/04 02:43:09;;;;;;;27.00;15.57;;;;;;;6.31;93.87;99793.06;2061531;28;44040;-76
2022/01/04 02:44:11;;;;;;;31.38;16.35;;;;;;;6.30;94.07;99792.19;2063935;28;44676;-76
2022/01/04 02:45:12;;;;;;;30.08;15.00;;;;;;;6.30;94.01;99792.19;2063890;28;29104;-77
2022/01/04 02:46:14;;;;;;;33.05;16.88;;;;;;;6.27;93.67;99791.41;2062821;28;46498;-75
2022/01/04 02:47:17;;;;;;;28.52;16.50;;;;;;;6.24;94.09;99795.00;2064183;28;43754;-76
2022/01/04 02:48:18;;;;;;;31.92;15.10;;;;;;;6.25;93.35;99788.78;2064861;28;27794;-76
2022/01/04 02:49:20;;;;;;;30.60;16.63;;;;;;;6.23;94.02;99787.09;2063132;28;46639;-76
2022/01/04 02:50:22;;;;;;;32.97;15.70;;;;;;;6.21;94.19;99780.91;2063212;28;43564;-76
2022/01/04 02:51:24;;;;;;;31.23;16.95;;;;;;;6.19;93.79;99786.28;2055714;28;23253;-76
2022/01/04 02:52:27;;;;;;;40.38;17.17;;;;;;;6.19;94.24;99777.41;2063386;28;45716;-76
2022/01/04 02:53:28;;;;;;;34.70;17.23;;;;;;;6.21;94.29;99776.47;2064493;28;35430;-76
2022/01/04 02:54:30;;;;;;;36.20;17.67;;;;;;;6.19;93.87;99772.09;2064042;28;28185;-76
2022/01/04 02:55:32;;;;;;;32.15;16.88;;;;;;;6.15;94.24;99773.94;2063940;28;43512;-76
2022/01/04 02:56:39;;;;;;;33.55;17.40;;;;;;;6.17;94.11;99769.47;2063280;28;44650;-76
2022/01/04 02:57:41;;;;;;;35.00;17.42;;;;;;;6.15;94.30;99765.97;2062971;28;39098;-75
2022/01/04 02:58:43;;;;;;;33.35;17.88;;;;;;;6.15;94.39;99773.94;2062807;28;42880;-75
2022/01/04 02:59:45;;;;;;;33.70;17.80;;;;;;;6.16;94.05;99758.91;2063249;28;44852;-75
2022/01/04 03:00:46;;;;;;;33.40;18.52;;;;;;;6.16;93.86;99764.22;2063471;28;43429;-76
2022/01/04 03:01:48;;;;;;;36.63;17.67;;;;;;;6.15;93.96;99765.97;2070484;28;44599;-75
2022/01/04 03:02:51;;;;;;;35.92;18.05;;;;;;;6.14;94.89;99763.34;2062907;28;44890;-76
2022/01/04 03:03:53;;;;;;;37.25;18.40;;;;;;;6.14;93.99;99763.34;2063399;28;27897;-76
2022/01/04 03:04:54;;;;;;;34.38;19.13;;;;;;;6.14;94.64;99758.03;2071042;28;45844;-76
2022/01/04 03:05:56;;;;;;;36.13;18.45;;;;;;;6.13;94.47;99767.81;2063245;28;44284;-75
2022/01/04 03:06:59;;;;;;;30.95;18.20;;;;;;;6.10;94.18;99760.78;2055122;28;45791;-76
2022/01/04 03:08:00;;;;;;;35.80;18.58;;;;;;;6.09;94.01;99753.72;2063184;28;43578;-76
2022/01/04 03:09:06;;;;;;;37.67;19.10;;;;;;;6.09;94.72;99761.69;2064208;28;28659;-75
2022/01/04 03:10:08;;;;;;;33.80;18.75;;;;;;;6.06;94.51;99755.56;2063623;28;44049;-75
2022/01/04 03:11:10;;;;;;;33.17;19.15;;;;;;;6.04;94.60;99747.63;2062702;28;45822;-75
2022/01/04 03:12:12;;;;;;;38.75;19.58;;;;;;;6.03;94.28;99753.88;2063657;28;25800;-75
2022/01/04 03:13:16;;;;;;;40.92;19.40;;;;;;;6.01;94.43;99750.38;2062753;28;45347;-75
2022/01/04 03:14:18;;;;;;;33.50;18.70;;;;;;;6.01;95.01;99747.72;2063102;28;44643;-75
2022/01/04 03:15:19;;;;;;;31.27;19.20;;;;;;;6.02;94.28;99738.81;2063497;28;36106;-75
2022/01/04 03:16:21;;;;;;;36.20;21.17;;;;;;;6.03;94.79;99743.25;2055107;28;46005;-76
2022/01/04 03:17:23;;;;;;;38.80;19.90;;;;;;;6.03;94.83;99742.34;2062654;28;44130;-75
2022/01/04 03:18:25;;;;;;;36.25;20.05;;;;;;;6.03;95.17;99737.94;2062771;28;44032;-75
2022/01/04 03:19:27;;;;;;;36.55;20.20;;;;;;;6.01;94.47;99739.75;2063101;28;44310;-75
2022/01/04 03:20:29;;;;;;;41.58;20.88;;;;;;;6.03;94.66;99729.97;2063974;28;25018;-75
2022/01/04 03:21:30;;;;;;;42.05;21.27;;;;;;;6.02;94.59;99733.50;2063024;28;45844;-75
2022/01/04 03:22:32;;;;;;;40.47;18.80;;;;;;;6.01;94.41;99730.88;2054981;28;45344;-75
2022/01/04 03:23:34;;;;;;;40.10;21.77;;;;;;;6.01;94.76;99728.22;2063057;28;23984;-77
2022/01/04 03:24:35;;;;;;;43.88;21.83;;;;;;;6.02;94.76;99727.34;2063016;28;44822;-77
2022/01/04 03:25:40;;;;;;;40.35;20.63;;;;;;;6.04;95.08;99717.53;2062470;28;45184;-77
2022/01/04 03:26:45;;;;;;;38.55;21.20;;;;;;;6.02;94.80;99724.69;2064068;28;20042;-75
2022/01/04 03:27:47;;;;;;;45.63;22.27;;;;;;;6.01;94.38;99736.19;2056019;28;43145;-75
2022/01/04 03:28:49;;;;;;;40.88;21.48;;;;;;;6.00;94.99;99719.41;2062798;28;46442;-76
2022/01/04 03:29:51;;;;;;;44.72;21.83;;;;;;;6.01;95.24;99717.59;2063030;28;43141;-75
2022/01/04 03:30:53;;;;;;;39.17;21.27;;;;;;;5.99;95.20;99720.28;2063783;28;44276;-76
2022/01/04 03:31:57;;;;;;;43.60;21.83;;;;;;;5.98;95.04;99715.91;2064535;28;28368;-76
2022/01/04 03:33:00;;;;;;;39.25;21.08;;;;;;;5.96;95.16;99709.75;2063951;28;43188;-75
2022/01/04 03:34:02;;;;;;;43.25;22.65;;;;;;;5.97;95.13;99703.53;2063428;28;44026;-75
2022/01/04 03:35:05;;;;;;;38.03;21.90;;;;;;;5.98;95.17;99713.25;2046728;28;45717;-75
2022/01/04 03:36:07;;;;;;;43.45;22.33;;;;;;;5.97;94.82;99711.50;2055490;28;37743;-74
2022/01/04 03:37:11;;;;;;;40.63;21.75;;;;;;;5.98;95.02;99699.97;2063062;28;29384;-75
2022/01/04 03:38:13;;;;;;;41.75;22.75;;;;;;;5.94;95.39;99703.59;2055975;28;43572;-76
2022/01/04 03:39:15;;;;;;;47.13;23.17;;;;;;;5.94;95.40;99695.63;2062640;28;45633;-76
2022/01/04 03:40:17;;;;;;;41.88;22.45;;;;;;;5.94;95.33;99695.63;2063482;28;34306;-75
2022/01/04 03:41:21;;;;;;;41.08;21.90;;;;;;;5.89;95.39;99690.41;2062840;28;44118;-75
2022/01/04 03:42:22;;;;;;;39.67;21.50;;;;;;;5.88;95.29;99691.28;2047002;28;46332;-75
2022/01/04 03:43:25;;;;;;;46.05;22.33;;;;;;;5.87;94.96;99691.34;2055543;28;44514;-75
2022/01/04 03:44:27;;;;;;;44.45;23.42;;;;;;;5.89;95.65;99686.88;2062618;28;44283;-77
2022/01/04 03:45:29;;;;;;;45.38;23.40;;;;;;;5.91;95.65;99690.38;2063760;28;20050;-76
2022/01/04 03:46:31;;;;;;;43.28;22.70;;;;;;;5.84;95.41;99676.34;2063420;28;44320;-76
2022/01/04 03:47:33;;;;;;;42.50;22.25;;;;;;;5.86;95.37;99686.94;2062600;28;46659;-76
2022/01/04 03:48:35;;;;;;;44.67;22.45;;;;;;;5.86;95.73;99678.97;2055455;28;35168;-75
2022/01/04 03:49:37;;;;;;;38.20;21.23;;;;;;;5.82;95.33;99682.63;2063095;28;43323;-76
2022/01/04 03:50:40;;;;;;;47.63;23.50;;;;;;;5.86;96.13;99671.88;2063354;28;44598;-76
2022/01/04 03:51:42;;;;;;;45.35;23.98;;;;;;;5.88;95.75;99672.69;2063616;28;43876;-75
2022/01/04 03:52:43;;;;;;;43.88;23.27;;;;;;;5.89;95.64;99678.91;2062746;28;39532;-77
2022/01/04 03:53:45;;;;;;;42.05;23.77;;;;;;;5.88;95.95;99675.34;2063437;28;44729;-76
2022/01/04 03:54:47;;;;;;;45.40;24.08;;;;;;;5.93;95.82;99668.16;2062661;28;42957;-76
2022/01/04 03:55:49;;;;;;;46.53;23.63;;;;;;;5.93;95.22;99665.50;2047828;28;25114;-76
2022/01/04 03:56:50;;;;;;;45.22;24.10;;;;;;;5.96;95.45;99663.69;2055317;28;44558;-76
2022/01/04 03:57:53;;;;;;;50.13;23.60;;;;;;;5.97;95.88;99661.00;2062205;28;43197;-76
2022/01/04 03:58:55;;;;;;;42.45;23.50;;;;;;;5.98;95.35;99659.25;2062501;28;30069;-77
2022/01/04 03:59:56;;;;;;;46.05;22.70;;;;;;;5.99;95.42;99669.81;2063074;28;43664;-76
2022/01/04 04:00:58;;;;;;;37.25;22.90;;;;;;;6.01;94.99;99659.16;2061838;28;46659;-75
2022/01/04 04:02:00;;;;;;;44.03;22.95;;;;;;;6.01;95.57;99662.72;2063062;28;28210;-76
2022/01/04 04:03:02;;;;;;;47.83;23.48;;;;;;;6.03;95.42;99655.56;2054947;28;45769;-76
2022/01/04 04:04:04;;;;;;;47.90;23.65;;;;;;;6.04;95.42;99665.25;2063749;28;21034;-77
2022/01/04 04:05:06;;;;;;;41.78;23.88;;;;;;;6.04;95.05;99657.28;2055296;28;44201;-77
2022/01/04 04:06:08;;;;;;;45.75;23.75;;;;;;;6.06;95.17;99658.13;2054562;28;44961;-77
2022/01/04 04:07:11;;;;;;;42.38;23.25;;;;;;;6.06;95.26;99655.47;2064672;28;44821;-77
2022/01/04 04:08:12;;;;;;;46.67;23.85;;;;;;;6.04;95.23;99656.44;2065031;28;27021;-77
2022/01/04 04:09:14;;;;;;;35.88;21.70;;;;;;;6.03;95.13;99659.97;2064909;28;45961;-77
2022/01/04 04:10:16;;;;;;;43.78;23.48;;;;;;;6.04;95.11;99651.97;2065149;28;35660;-78
2022/01/04 04:11:41;;;;;;;39.85;23.60;;;;;;;6.01;95.09;99656.50;2063879;28;45370;-76
2022/01/04 04:13:07;;;;;;;45.60;23.17;;;;;;;5.97;95.17;99644.22;2065594;28;20035;-77
2022/01/04 04:14:09;;;;;;;43.30;23.42;;;;;;;5.98;95.62;99643.31;2063972;28;44310;-77
2022/01/04 04:15:11;;;;;;;43.80;23.65;;;;;;;5.99;95.95;99642.38;2064885;28;44723;-77
2022/01/04 04:16:13;;;;;;;43.10;23.17;;;;;;;5.99;95.85;99640.59;2066088;28;31085;-76
2022/01/04 04:17:15;;;;;;;46.83;23.40;;;;;;;6.01;95.82;99645.88;2064529;28;44373;-76
2022/01/04 04:18:17;;;;;;;39.35;22.45;;;;;;;6.00;95.71;99626.41;2066101;28;20046;-76
2022/01/04 04:19:19;;;;;;;46.25;23.35;;;;;;;6.01;95.35;99628.16;2065214;28;45654;-75
2022/01/04 04:20:21;;;;;;;46.03;23.65;;;;;;;6.01;95.63;99630.81;2065282;28;46687;-76
2022/01/04 04:21:23;;;;;;;45.47;23.73;;;;;;;6.00;95.49;99630.84;2065462;28;40918;-76
2022/01/04 04:22:24;;;;;;;39.28;21.90;;;;;;;5.98;95.50;99628.25;2064344;28;44427;-76
2022/01/04 04:23:26;;;;;;;46.78;23.65;;;;;;;5.98;95.62;99624.72;2063989;28;44695;-76
2022/01/04 04:24:28;;;;;;;44.00;23.05;;;;;;;5.96;95.75;99623.84;2064067;28;45157;-76
2022/01/04 04:25:31;;;;;;;43.65;22.13;;;;;;;5.95;95.68;99620.31;2065848;28;20046;-76
2022/01/04 04:26:33;;;;;;;43.10;22.10;;;;;;;5.96;95.38;99611.47;2064622;28;29979;-76
2022/01/04 04:27:35;;;;;;;45.10;22.88;;;;;;;5.96;95.65;99610.56;2063311;28;45641;-76
2022/01/04 04:28:37;;;;;;;45.55;23.20;;;;;;;6.01;95.62;99604.25;2065220;28;44874;-76
2022/01/04 04:29:40;;;;;;;49.33;24.13;;;;;;;6.05;95.66;99615.69;2065962;28;22986;-76
2022/01/04 04:30:42;;;;;;;46.83;23.15;;;;;;;6.06;95.34;99607.63;2056501;28;36470;-76
2022/01/04 04:31:44;;;;;;;51.20;23.27;;;;;;;6.05;95.28;99605.91;2056629;28;43037;-76
2022/01/04 04:32:45;;;;;;;38.17;21.35;;;;;;;6.08;95.09;99600.53;2073350;28;21017;-77
2022/01/04 04:33:47;;;;;;;40.63;22.40;;;;;;;6.08;95.70;99594.31;2064359;28;44282;-77
2022/01/04 04:34:49;;;;;;;41.47;22.98;;;;;;;6.13;95.34;99600.38;2065121;28;20090;-77
2022/01/04 04:35:50;;;;;;;41.10;22.17;;;;;;;6.10;95.20;99600.47;2065022;28;45338;-77
2022/01/04 04:36:52;;;;;;;41.55;22.27;;;;;;;6.08;95.30;99587.25;2064680;28;43383;-76
2022/01/04 04:37:54;;;;;;;44.47;21.98;;;;;;;6.07;94.89;99592.59;2057650;28;20939;-76
2022/01/04 04:38:56;;;;;;;39.85;22.52;;;;;;;6.04;95.10;99577.59;2059085;28;45150;-77
2022/01/04 04:39:58;;;;;;;40.58;21.50;;;;;;;6.06;95.24;99575.75;2064422;28;43956;-76
2022/01/04 04:41:00;;;;;;;45.50;22.42;;;;;;;6.05;95.83;99579.34;2064848;28;20050;-76
2022/01/04 04:42:02;;;;;;;43.17;22.10;;;;;;;6.07;95.60;99590.78;2063923;28;44389;-76
2022/01/04 04:43:05;;;;;;;39.75;21.70;;;;;;;6.07;95.14;99581.97;2064689;28;20062;-77
2022/01/04 04:44:07;;;;;;;40.75;21.55;;;;;;;6.04;95.49;99593.53;2056882;28;29609;-76
2022/01/04 04:45:09;;;;;;;47.33;22.48;;;;;;;6.04;95.04;99590.00;2056373;28;44730;-77
2022/01/04 04:46:11;;;;;;;49.15;22.65;;;;;;;6.04;95.64;99588.22;2056167;28;45821;-77
2022/01/04 04:47:13;;;;;;;45.00;22.92;;;;;;;6.06;95.46;99582.88;2055227;28;44718;-76
2022/01/04 04:48:15;;;;;;;44.17;21.13;;;;;;;6.08;95.39;99581.94;2055703;28;44069;-77
2022/01/04 04:49:16;;;;;;;48.53;22.60;;;;;;;6.08;96.14;99573.97;2056953;28;31341;-77
2022/01/04 04:50:18;;;;;;;44.70;21.05;;;;;;;6.07;95.84;99572.19;2057506;28;20118;-77
2022/01/04 04:51:20;;;;;;;45.47;22.45;;;;;;;6.10;96.00;99576.53;2057140;28;29653;-78
2022/01/04 04:52:22;;;;;;;39.60;21.55;;;;;;;6.09;95.64;99570.38;2055866;28;44514;-77
2022/01/04 04:53:24;;;;;;;40.67;23.25;;;;;;;6.11;96.06;99570.34;2056093;28;44136;-77
2022/01/04 04:54:27;;;;;;;44.67;21.50;;;;;;;6.12;95.46;99572.09;2055279;28;38786;-77